Latest Weather Observations for Launceston

IDT60801

Issued at 10:05 pm EDT Friday 24 October 2014 (issued every 30 minutes, with the page automatically refreshed every 10 minutes)

About weather observations | Map of weather stations | Latest weather observations for TAS | Other Formats
Station Details ID: 091237 Name: LAUNCESTON (TI TREE BEND) Lat: -41.42 Lon: 147.12 Height: 5.0 m
Data from the previous 72 hours. | See also: Recent months at Launceston
Date/Time
EDT
Temp
°C
App
Temp
°C
Dew
Point
Rel
Hum
%
Delta-T
°C
Wind Press
QNH
hPa
Press
MSL
hPa
Rain
since 9 am
mm
Dir
 
Spd
km/h
Gust
km/h
Spd
kts
Gust
kts
24/10:00pm 15.9 16.5 14.3 90 0.9 NW 4 6 2 3 - - 0.0
24/09:30pm 15.5 15.8 13.5 88 1.1 NNW 4 6 2 3 - - 0.0
24/09:00pm 15.7 15.7 13.7 88 1.1 NW 6 7 3 4 - - 0.0
24/08:30pm 16.1 17.2 13.6 85 1.4 CALM 0 0 0 0 - - 0.0
24/08:00pm 16.7 17.9 13.8 83 1.6 CALM 0 6 0 3 - - 0.0
24/07:30pm 17.0 17.4 13.7 81 1.9 E 4 7 2 4 - - 0.0
24/07:00pm 17.1 17.5 13.6 80 2.0 SSE 4 6 2 3 - - 0.0
24/06:30pm 17.4 17.5 13.9 80 2.0 S 6 7 3 4 - - 0.0
24/06:00pm 17.9 18.0 14.0 78 2.2 SSW 6 7 3 4 - - 0.0
24/05:30pm 17.8 17.8 13.7 77 2.3 W 6 9 3 5 - - 0.0
24/05:00pm 18.0 18.0 13.7 76 2.4 SW 6 7 3 4 - - 0.0
24/04:30pm 17.8 17.8 13.5 76 2.4 SSW 6 7 3 4 - - 0.0
24/04:00pm 17.0 16.5 12.7 76 2.4 WSW 7 13 4 7 - - 0.0
24/03:30pm 17.4 17.7 13.3 77 2.3 SW 4 6 2 3 - - 0.0
24/03:00pm 15.7 15.5 11.7 77 2.2 N 4 4 2 2 - - 0.0
24/02:30pm 15.4 14.6 11.0 75 2.3 WNW 6 7 3 4 - - 0.0
24/02:00pm 15.4 15.6 10.6 73 2.5 CALM 0 0 0 0 - - 0.0
24/01:30pm 14.4 14.0 9.8 74 2.4 WNW 2 4 1 2 - - 0.0
24/01:00pm 13.9 13.5 9.7 76 2.2 NNW 2 2 1 1 - - 0.0
24/12:30pm 13.2 12.7 9.5 78 1.9 NNW 2 4 1 2 - - 0.0
24/12:00pm 12.3 11.6 8.4 77 1.9 NNW 2 4 1 2 - - 0.0
24/11:30am 12.6 11.6 8.9 78 1.9 NNW 4 7 2 4 - - 0.0
24/11:00am 12.3 11.1 8.2 76 2.0 NW 4 6 2 3 - - 0.0
24/10:30am 11.1 9.7 7.4 78 1.8 NNW 4 7 2 4 - - 0.0
24/10:00am 10.8 9.4 7.3 79 1.7 WNW 4 6 2 3 - - 0.0
24/09:30am 10.3 8.8 6.8 79 1.6 WNW 4 6 2 3 - - 0.0
24/09:00am 9.9 8.4 6.6 80 1.5 W 4 7 2 4 - - 0.0
24/08:30am 9.8 8.5 6.0 77 1.7 E 2 4 1 2 - - 0.0
24/08:00am 9.4 7.3 5.8 78 1.6 E 6 7 3 4 - - 0.0
24/07:30am 8.5 6.3 5.1 79 1.5 E 6 9 3 5 - - 0.0
24/07:00am 8.5 6.2 4.9 78 1.6 E 6 9 3 5 - - 0.0
24/06:30am 8.0 5.4 4.4 78 1.6 SE 7 11 4 6 - - 0.0
24/06:00am 7.7 4.8 4.5 80 1.4 ESE 9 15 5 8 - - 0.0
24/05:30am 6.7 3.3 4.2 84 1.1 ESE 11 15 6 8 - - 0.0
24/05:00am 7.5 5.0 4.6 82 1.3 SSE 7 9 4 5 - - 0.0
24/04:30am 6.1 4.0 4.1 87 0.9 SE 4 7 2 4 - - 0.0
24/04:00am 5.5 4.1 3.7 88 0.8 CALM 0 4 0 2 - - 0.0
24/03:30am 5.5 3.8 4.0 90 0.6 NE 2 4 1 2 - - 0.0
24/03:00am 5.8 3.6 3.6 86 0.9 E 4 6 2 3 - - 0.0
24/02:30am 6.3 4.2 4.0 85 1.0 E 4 6 2 3 - - 0.0
24/02:00am 6.6 4.9 3.9 83 1.1 SE 2 4 1 2 - - 0.0
24/01:30am 7.1 4.8 4.6 84 1.1 E 6 7 3 4 - - 0.0
24/01:00am 7.7 6.3 5.5 86 1.0 WNW 2 4 1 2 - - 0.0
24/12:30am 7.9 6.9 5.7 86 1.0 CALM 0 0 0 0 - - 0.0
24/12:00am 8.3 6.5 5.4 82 1.3 NE 4 6 2 3 - - 0.0
 
Date/Time
EDT
Temp
°C
App
Temp
°C
Dew
Point
Rel
Hum
%
Delta-T
°C
Wind Press
QNH
hPa
Press
MSL
hPa
Rain
since 9 am
mm
Dir
 
Spd
km/h
Gust
km/h
Spd
kts
Gust
kts
23/11:30pm 8.9 7.4 5.1 77 1.7 WSW 2 4 1 2 - - 0.0
23/11:00pm 10.1 7.8 4.9 70 2.3 E 6 9 3 5 - - 0.0
23/10:30pm 11.7 8.4 4.4 61 3.3 SE 11 17 6 9 - - 0.0
23/10:00pm 11.7 9.2 4.7 62 3.2 SE 7 15 4 8 - - 0.0
23/09:30pm 13.1 9.4 4.3 55 4.0 SE 13 20 7 11 - - 0.0
23/09:00pm 13.9 9.8 4.2 52 4.4 SE 15 24 8 13 - - 0.0
23/08:30pm 15.0 11.2 3.8 47 5.1 SE 13 20 7 11 - - 0.0
23/08:00pm 15.1 12.9 5.3 52 4.6 S 6 9 3 5 - - 0.0
23/07:30pm 16.4 14.5 5.1 47 5.4 SSW 4 7 2 4 - - 0.0
23/07:00pm 18.1 15.3 5.3 43 6.2 S 9 13 5 7 - - 0.0
23/06:30pm 19.0 15.2 5.8 42 6.5 S 15 24 8 13 - - 0.0
23/06:00pm 20.1 16.2 5.4 38 7.2 SSW 15 20 8 11 - - 0.0
23/05:30pm 21.0 17.1 5.4 36 7.7 S 15 22 8 12 - - 0.0
23/05:00pm 21.0 16.9 4.6 34 8.0 S 15 19 8 10 - - 0.0
23/04:30pm 21.9 18.2 4.5 32 8.5 SE 13 20 7 11 - - 0.0
23/04:00pm 21.7 17.8 3.4 30 8.8 SSE 13 22 7 12 - - 0.0
23/03:30pm 21.7 18.3 3.9 31 8.6 SSE 11 24 6 13 - - 0.0
23/03:00pm 21.5 18.0 3.7 31 8.6 SSE 11 19 6 10 - - 0.0
23/02:30pm 21.8 19.0 5.3 34 8.2 S 9 19 5 10 - - 0.0
23/02:00pm 21.2 16.3 4.3 33 8.2 S 19 24 10 13 - - 0.0
23/01:30pm 20.4 15.8 3.6 33 8.0 SSE 17 26 9 14 - - 0.0
23/01:00pm 19.5 14.3 3.6 35 7.5 SSE 20 30 11 16 - - 0.0
23/12:30pm 18.8 12.6 4.2 38 6.9 SSE 26 37 14 20 - - 0.0
23/12:00pm 18.3 12.5 4.5 40 6.6 SSE 24 39 13 21 - - 0.0
23/11:30am 17.7 12.3 4.6 42 6.2 SSE 22 35 12 19 - - 0.0
23/11:11am 16.8 10.1 5.7 48 5.4 S 30 50 16 27 - - 0.0
23/11:00am 16.4 10.4 5.4 48 5.3 SSE 26 37 14 20 - - 0.0
23/10:30am 16.0 9.4 6.2 52 4.8 SSE 30 44 16 24 - - 0.0
23/10:18am 15.6 8.9 5.5 51 4.8 SSE 30 48 16 26 - - 0.0
23/10:00am 14.8 7.7 5.6 54 4.4 SSE 32 44 17 24 - - 0.0
23/09:42am 14.8 8.6 6.1 56 4.2 SSE 28 54 15 29 - - 0.0
23/09:30am 14.4 7.7 5.7 56 4.1 SSE 30 43 16 23 - - 0.0
23/09:10am 13.7 7.4 5.6 58 3.8 SSE 28 46 15 25 - - 0.0
23/09:00am 13.4 6.4 5.8 60 3.6 S 32 48 17 26 - - 0.0
23/08:30am 13.1 7.3 6.2 63 3.3 SSE 26 41 14 22 - - 0.0
23/08:00am 12.7 6.5 6.1 64 3.1 SSE 28 41 15 22 - - 0.0
23/07:30am 12.7 6.6 6.7 67 2.9 SSE 28 46 15 25 - - 0.0
23/07:00am 12.8 8.0 7.3 69 2.7 SSE 22 33 12 18 - - 0.0
23/06:30am 12.9 7.8 7.8 71 2.5 SSE 24 41 13 22 - - 0.0
23/06:10am 13.1 7.4 8.4 73 2.3 SSE 28 46 15 25 - - 0.0
23/06:00am 13.4 8.2 8.9 74 2.3 SSE 26 39 14 21 - - 0.0
23/05:30am 14.0 9.3 9.2 73 2.4 SE 24 33 13 18 - - 0.0
23/05:00am 14.0 9.4 9.6 75 2.3 SSE 24 33 13 18 - - 0.0
23/04:30am 14.3 9.8 9.9 75 2.3 SSE 24 35 13 19 - - 0.0
23/04:00am 14.6 10.6 10.4 76 2.2 SSE 22 35 12 19 - - 0.0
23/03:30am 14.8 11.4 10.6 76 2.2 SSE 19 28 10 15 - - 0.0
23/03:00am 14.9 11.4 10.3 74 2.4 SSE 19 28 10 15 - - 0.0
23/02:30am 14.7 10.8 9.5 71 2.7 SSE 20 30 11 16 - - 0.0
23/02:00am 14.7 10.8 9.3 70 2.8 SSE 20 30 11 16 - - 0.0
23/01:30am 14.9 11.1 9.1 68 3.0 SSE 19 30 10 16 - - 0.0
23/01:00am 15.0 12.9 9.8 71 2.7 SE 11 20 6 11 - - 0.0
23/12:30am 12.7 11.8 10.6 87 1.1 E 6 9 3 5 - - 0.0
23/12:00am 13.5 12.7 10.9 84 1.4 ESE 6 9 3 5 - - 0.0
 
Date/Time
EDT
Temp
°C
App
Temp
°C
Dew
Point
Rel
Hum
%
Delta-T
°C
Wind Press
QNH
hPa
Press
MSL
hPa
Rain
since 9 am
mm
Dir
 
Spd
km/h
Gust
km/h
Spd
kts
Gust
kts
22/11:30pm 13.9 13.1 10.9 82 1.6 SE 6 9 3 5 - - 0.0
22/11:00pm 13.6 13.3 11.5 87 1.1 E 4 6 2 3 - - 0.0
22/10:30pm 14.0 13.7 11.5 85 1.3 SW 4 6 2 3 - - 0.0
22/10:00pm 14.5 13.9 11.8 84 1.5 NNW 6 7 3 4 - - 0.0
22/09:30pm 15.0 13.9 11.8 81 1.7 N 9 13 5 7 - - 0.0
22/09:00pm 16.2 14.6 10.1 67 3.2 WNW 9 17 5 9 - - 0.0
22/08:30pm 16.9 14.9 10.3 65 3.5 NW 11 19 6 10 - - 0.0
22/08:00pm 16.9 15.5 11.0 68 3.2 N 9 15 5 8 - - 0.0
22/07:30pm 17.9 15.9 10.3 61 4.1 NW 11 19 6 10 - - 0.0
22/07:00pm 17.8 15.9 10.4 62 3.9 NW 11 17 6 9 - - 0.0
22/06:30pm 18.8 16.4 10.1 57 4.6 NNW 13 17 7 9 - - 0.0
22/06:00pm 19.2 15.7 10.2 56 4.8 NW 19 30 10 16 - - 0.0
22/05:30pm 20.2 17.8 10.0 52 5.5 NW 13 22 7 12 - - 0.0
22/05:00pm 21.1 17.3 9.0 46 6.4 NW 19 28 10 15 - - 0.0
22/04:30pm 22.1 18.6 10.3 47 6.4 NW 19 30 10 16 - - 0.0
22/04:00pm 23.8 21.5 11.8 47 6.8 NW 15 28 8 15 - - 0.0
22/03:30pm 23.0 19.2 9.8 43 7.2 NW 20 30 11 16 - - 0.0
22/03:00pm 23.6 21.3 11.6 47 6.8 NW 15 22 8 12 - - 0.0
22/02:30pm 22.8 20.2 12.1 51 6.1 NW 17 26 9 14 - - 0.0
22/02:00pm 22.0 19.8 12.0 53 5.6 NNW 15 20 8 11 - - 0.0
22/01:30pm 21.1 19.6 12.0 56 5.1 NW 11 22 6 12 - - 0.0
22/01:00pm 20.5 19.2 11.2 55 5.1 WNW 9 17 5 9 - - 0.0
22/12:30pm 20.3 18.5 12.0 59 4.6 WNW 13 19 7 10 - - 0.0
22/12:00pm 19.3 17.7 11.6 61 4.2 NW 11 20 6 11 - - 0.0
22/11:30am 18.9 17.6 11.2 61 4.2 NW 9 19 5 10 - - 0.0
22/11:00am 18.4 16.5 11.7 65 3.7 NW 13 22 7 12 - - 0.0
22/10:30am 17.5 15.8 11.1 66 3.5 N 11 17 6 9 - - 0.0
22/10:00am 16.9 16.3 10.5 66 3.4 ENE 4 9 2 5 - - 0.0
22/09:30am 14.3 13.3 8.7 69 2.8 N 4 7 2 4 - - 0.0
22/09:00am 13.2 12.3 7.9 70 2.6 N 2 4 1 2 - - 0.0
22/08:30am 12.9 12.2 6.9 67 2.9 CALM 0 0 0 0 - - 0.0
22/08:00am 11.0 9.5 6.7 75 2.0 E 4 6 2 3 - - 0.0
22/07:30am 8.6 6.5 5.9 83 1.2 E 6 7 3 4 - - 0.0
22/07:00am 7.8 6.1 5.9 88 0.9 E 4 4 2 2 - - 0.0
22/06:30am 6.6 4.7 4.9 89 0.7 E 4 7 2 4 - - 0.0
22/06:00am 6.9 5.8 5.1 88 0.8 CALM 0 4 0 2 - - 0.0
22/05:30am 7.2 5.7 5.2 87 0.9 E 2 6 1 3 - - 0.0
22/05:00am 7.3 5.1 5.3 87 0.9 E 6 7 3 4 - - 0.0
22/04:30am 7.8 6.0 5.4 85 1.1 E 4 6 2 3 - - 0.0
22/04:00am 8.3 7.0 5.8 84 1.1 SSE 2 6 1 3 - - 0.0
22/03:30am 8.0 5.9 5.6 85 1.1 ESE 6 9 3 5 - - 0.0
22/03:00am 8.4 6.3 6.0 85 1.1 E 6 9 3 5 - - 0.0
22/02:30am 8.2 7.4 6.5 89 0.8 CALM 0 2 0 1 - - 0.0
22/02:00am 8.1 6.8 6.1 87 0.9 ENE 2 6 1 3 - - 0.0
22/01:30am 8.2 6.9 6.0 86 1.0 NNE 2 4 1 2 - - 0.0
22/01:00am 9.0 7.8 6.3 83 1.2 NNW 2 6 1 3 - - 0.0
22/12:30am 9.9 8.4 6.8 81 1.5 NNW 4 6 2 3 - - 0.0
22/12:00am 9.7 8.2 6.6 81 1.4 SSW 4 6 2 3 - - 0.0
 
Date/Time
EDT
Temp
°C
App
Temp
°C
Dew
Point
Rel
Hum
%
Delta-T
°C
Wind Press
QNH
hPa
Press
MSL
hPa
Rain
since 9 am
mm
Dir
 
Spd
km/h
Gust
km/h
Spd
kts
Gust
kts
21/11:30pm 10.5 9.2 5.9 73 2.1 W 2 4 1 2 - - 0.0
21/11:00pm 11.0 9.3 6.0 71 2.3 SSE 4 6 2 3 - - 0.0
21/10:30pm 11.4 9.1 5.9 69 2.6 WNW 7 11 4 6 - - 0.0

Other Formats:

Comma delimited format used in spreadsheet applications
http://www.bom.gov.au/fwo/IDT60801/IDT60801.94969.axf

JavaScript Object Notation format (JSON) in row-major order
http://www.bom.gov.au/fwo/IDT60801/IDT60801.94969.json